Latest Weather Observations for Point Wilson

IDV60801

Issued at 4:02 pm EST Wednesday 2 September 2015 (issued every 30 minutes, with the page automatically refreshed every 10 minutes)

About weather observations | Map of weather stations | Latest weather observations for VIC | Other Formats
Station Details ID: 087166 Name: POINT WILSON Lat: -38.10 Lon: 144.54 Height: 18.0 m
Data from the previous 72 hours. | See also: Recent months for locations in Victoria
Date/Time
EST
Temp
°C
App
Temp
°C
Dew
Point
Rel
Hum
%
Delta-T
°C
Wind Press
QNH
hPa
Press
MSL
hPa
Rain
since 9 am
mm
Dir
 
Spd
km/h
Gust
km/h
Spd
kts
Gust
kts
02/04:00pm - - - - - E 17 19 9 10 - - -
02/03:30pm - - - - - NE 15 20 8 11 - - -
02/03:00pm - - - - - N 22 28 12 15 - - -
02/02:30pm - - - - - NNE 28 32 15 17 - - -
02/02:00pm - - - - - N 32 39 17 21 - - -
02/01:30pm - - - - - NNE 35 41 19 22 - - -
02/01:00pm - - - - - NNE 35 43 19 23 - - -
02/12:30pm - - - - - NNE 32 39 17 21 - - -
02/12:00pm - - - - - NNE 35 43 19 23 - - -
02/11:30am - - - - - N 43 50 23 27 - - -
02/11:00am - - - - - NNE 33 43 18 23 - - -
02/10:30am - - - - - NNE 39 46 21 25 - - -
02/10:00am - - - - - NNE 39 43 21 23 - - -
02/09:30am - - - - - N 41 52 22 28 - - -
02/09:00am - - - - - N 39 43 21 23 - - -
02/08:30am - - - - - N 39 52 21 28 - - -
02/08:00am - - - - - N 39 46 21 25 - - -
02/07:30am - - - - - N 30 37 16 20 - - -
02/07:00am - - - - - N 33 39 18 21 - - -
02/06:30am - - - - - NNE 24 28 13 15 - - -
02/06:00am - - - - - NE 22 26 12 14 - - -
02/05:30am - - - - - NE 24 28 13 15 - - -
02/05:00am - - - - - NE 26 30 14 16 - - -
02/04:30am - - - - - NE 22 28 12 15 - - -
02/04:00am - - - - - NE 22 26 12 14 - - -
02/03:30am - - - - - NE 20 24 11 13 - - -
02/03:00am - - - - - NE 22 24 12 13 - - -
02/02:30am - - - - - NE 24 28 13 15 - - -
02/02:00am - - - - - NE 24 28 13 15 - - -
02/01:30am - - - - - NNE 24 28 13 15 - - -
02/01:00am - - - - - NNE 28 32 15 17 - - -
02/12:30am - - - - - NNE 26 30 14 16 - - -
02/12:00am - - - - - NNE 24 28 13 15 - - -
 
Date/Time
EST
Temp
°C
App
Temp
°C
Dew
Point
Rel
Hum
%
Delta-T
°C
Wind Press
QNH
hPa
Press
MSL
hPa
Rain
since 9 am
mm
Dir
 
Spd
km/h
Gust
km/h
Spd
kts
Gust
kts
01/11:30pm - - - - - NNE 24 28 13 15 - - -
01/11:00pm - - - - - NE 11 17 6 9 - - -
01/10:30pm - - - - - NNE 13 15 7 8 - - -
01/10:00pm - - - - - NE 19 20 10 11 - - -
01/09:30pm - - - - - E 24 30 13 16 - - -
01/09:00pm - - - - - E 22 26 12 14 - - -
01/08:30pm - - - - - E 17 22 9 12 - - -
01/08:00pm - - - - - E 19 20 10 11 - - -
01/07:30pm - - - - - E 15 20 8 11 - - -
01/07:00pm - - - - - E 9 11 5 6 - - -
01/06:30pm - - - - - ESE 11 13 6 7 - - -
01/06:00pm - - - - - ESE 15 17 8 9 - - -
01/05:30pm - - - - - E 19 20 10 11 - - -
01/05:00pm - - - - - E 19 20 10 11 - - -
01/04:30pm - - - - - E 15 17 8 9 - - -
01/04:00pm - - - - - E 9 13 5 7 - - -
01/03:30pm - - - - - E 15 15 8 8 - - -
01/03:00pm - - - - - E 17 19 9 10 - - -
01/02:30pm - - - - - E 19 20 10 11 - - -
01/02:00pm - - - - - E 20 22 11 12 - - -
01/01:30pm - - - - - E 19 22 10 12 - - -
01/01:00pm - - - - - E 15 19 8 10 - - -
01/12:30pm - - - - - ESE 15 17 8 9 - - -
01/12:00pm - - - - - ESE 11 13 6 7 - - -
01/11:30am - - - - - SE 9 11 5 6 - - -
01/11:00am - - - - - SE 9 11 5 6 - - -
01/10:30am - - - - - CALM 0 0 0 0 - - -
01/10:00am - - - - - W 2 6 1 3 - - -
01/09:30am - - - - - W 7 9 4 5 - - -
01/09:00am - - - - - W 11 13 6 7 - - -
01/08:30am - - - - - W 11 13 6 7 - - -
01/08:00am - - - - - WNW 13 15 7 8 - - -
01/07:30am - - - - - WNW 13 15 7 8 - - -
01/07:00am - - - - - WNW 11 13 6 7 - - -
01/06:30am - - - - - NW 11 13 6 7 - - -
01/06:00am - - - - - ESE 6 9 3 5 - - -
01/05:30am - - - - - ESE 7 9 4 5 - - -
01/05:00am - - - - - SSW 4 9 2 5 - - -
01/04:30am - - - - - SW 7 9 4 5 - - -
01/04:00am - - - - - S 4 9 2 5 - - -
01/03:30am - - - - - S 9 13 5 7 - - -
01/03:00am - - - - - CALM 0 9 0 5 - - -
01/02:30am - - - - - SW 9 13 5 7 - - -
01/02:00am - - - - - W 6 9 3 5 - - -
01/01:30am - - - - - SSE 7 11 4 6 - - -
01/01:00am - - - - - WSW 13 20 7 11 - - -
01/12:30am - - - - - WSW 2 7 1 4 - - -
01/12:00am - - - - - SW 6 15 3 8 - - -
 
Date/Time
EST
Temp
°C
App
Temp
°C
Dew
Point
Rel
Hum
%
Delta-T
°C
Wind Press
QNH
hPa
Press
MSL
hPa
Rain
since 9 am
mm
Dir
 
Spd
km/h
Gust
km/h
Spd
kts
Gust
kts
31/11:30pm - - - - - S 9 13 5 7 - - -
31/11:00pm - - - - - SSW 2 7 1 4 - - -
31/10:30pm - - - - - SSW 11 17 6 9 - - -
31/10:00pm - - - - - S 7 11 4 6 - - -
31/09:30pm - - - - - SSE 11 13 6 7 - - -
31/09:00pm - - - - - S 11 15 6 8 - - -
31/08:30pm - - - - - SSE 13 15 7 8 - - -
31/08:00pm - - - - - SSE 13 17 7 9 - - -
31/07:30pm - - - - - S 13 15 7 8 - - -
31/07:00pm - - - - - S 13 15 7 8 - - -
31/06:30pm - - - - - SE 11 13 6 7 - - -
31/06:00pm - - - - - S 11 15 6 8 - - -
31/05:30pm - - - - - S 15 17 8 9 - - -
31/05:00pm - - - - - SSW 15 19 8 10 - - -
31/04:30pm - - - - - SSW 15 19 8 10 - - -
31/04:00pm - - - - - SW 17 19 9 10 - - -
31/03:30pm - - - - - SW 11 13 6 7 - - -
31/03:00pm - - - - - SW 9 11 5 6 - - -
31/02:30pm - - - - - SW 13 17 7 9 - - -
31/02:00pm - - - - - SW 15 19 8 10 - - -
31/01:30pm - - - - - WSW 7 11 4 6 - - -
31/01:00pm - - - - - WNW 9 11 5 6 - - -
31/12:30pm - - - - - W 9 9 5 5 - - -
31/12:00pm - - - - - W 9 11 5 6 - - -
31/11:30am - - - - - CALM 0 0 0 0 - - -
31/11:00am - - - - - WSW 7 9 4 5 - - -
31/10:30am - - - - - WSW 9 11 5 6 - - -
31/10:00am - - - - - SW 9 11 5 6 - - -
31/09:30am - - - - - WSW 9 13 5 7 - - -
31/09:00am - - - - - W 15 17 8 9 - - -
31/08:30am - - - - - W 15 17 8 9 - - -
31/08:00am - - - - - W 17 20 9 11 - - -
31/07:30am - - - - - W 17 22 9 12 - - -
31/07:00am - - - - - W 17 19 9 10 - - -
31/06:30am - - - - - WNW 17 20 9 11 - - -
31/06:00am - - - - - W 19 22 10 12 - - -
31/05:30am - - - - - WSW 15 20 8 11 - - -
31/05:00am - - - - - WSW 17 24 9 13 - - -
31/04:30am - - - - - WSW 17 20 9 11 - - -
31/04:00am - - - - - WSW 17 20 9 11 - - -
31/03:30am - - - - - WSW 20 24 11 13 - - -
31/03:00am - - - - - WSW 19 22 10 12 - - -
31/02:30am - - - - - W 22 28 12 15 - - -
31/02:00am - - - - - WSW 20 22 11 12 - - -
31/01:30am - - - - - W 15 19 8 10 - - -
31/01:00am - - - - - W 13 17 7 9 - - -
31/12:30am - - - - - WSW 19 24 10 13 - - -
31/12:00am - - - - - WSW 7 11 4 6 - - -
 
Date/Time
EST
Temp
°C
App
Temp
°C
Dew
Point
Rel
Hum
%
Delta-T
°C
Wind Press
QNH
hPa
Press
MSL
hPa
Rain
since 9 am
mm
Dir
 
Spd
km/h
Gust
km/h
Spd
kts
Gust
kts
30/11:30pm - - - - - SW 17 20 9 11 - - -
30/11:00pm - - - - - WSW 17 19 9 10 - - -
30/10:30pm - - - - - SW 19 20 10 11 - - -
30/10:00pm - - - - - WSW 15 19 8 10 - - -
30/09:30pm - - - - - SSW 19 22 10 12 - - -
30/09:00pm - - - - - SSW 20 24 11 13 - - -
30/08:30pm - - - - - SSW 26 30 14 16 - - -
30/08:00pm - - - - - SSW 28 33 15 18 - - -
30/07:30pm - - - - - SSW 24 30 13 16 - - -
30/07:00pm - - - - - S 22 28 12 15 - - -
30/06:30pm - - - - - SSW 26 30 14 16 - - -
30/06:00pm - - - - - SSW 24 30 13 16 - - -
30/05:30pm - - - - - SSW 26 28 14 15 - - -
30/05:00pm - - - - - SSW 24 28 13 15 - - -
30/04:30pm - - - - - SSW 22 28 12 15 - - -

Other Formats:

Comma delimited format used in spreadsheet applications
http://www.bom.gov.au/fwo/IDV60801/IDV60801.94847.axf

JavaScript Object Notation format (JSON) in row-major order
http://www.bom.gov.au/fwo/IDV60801/IDV60801.94847.json